Time;durP1;ratioP1;P1;durP2;ratioP2;P2;SDS_P1;SDS_P2;PMS_P1;PMS_P2;Temp;Humidity;BMP_temperature;BMP_pressure;BME280_temperature;BME280_humidity;BME280_pressure;Samples;Min_cycle;Max_cycle;Signal;HPM_P1;HPM_P2
2022/04/08 00:01:24;;;;;;;;;0.50;0.50;;;;;10.65;52.50;99891.78;5011119;28;45712;-85
2022/04/08 00:03:49;;;;;;;;;0.75;0.75;;;;;10.76;52.68;99923.53;5010017;28;45150;-84
2022/04/08 00:06:15;;;;;;;;;1.00;1.00;;;;;10.70;52.12;99913.78;5009950;28;45137;-84
2022/04/08 00:08:41;;;;;;;;;1.00;0.75;;;;;10.74;52.81;99923.53;5010026;28;45146;-84
2022/04/08 00:11:06;;;;;;;;;0.50;0.50;;;;;10.63;52.62;99905.75;5009152;28;45390;-85
2022/04/08 00:13:31;;;;;;;;;1.00;0.00;;;;;10.72;52.98;99919.06;5010496;28;45129;-84
2022/04/08 00:15:57;;;;;;;;;0.00;0.00;;;;;10.90;53.19;99944.84;5010855;28;45048;-85
2022/04/08 00:18:23;;;;;;;;;0.50;0.00;;;;;10.61;52.81;99895.19;5010484;28;45078;-84
2022/04/08 00:20:49;;;;;;;;;0.00;0.00;;;;;10.72;53.17;99908.56;5009318;28;45983;-85
2022/04/08 00:23:14;;;;;;;;;0.00;0.00;;;;;10.70;53.25;99905.03;5009371;28;45337;-84
2022/04/08 00:25:40;;;;;;;;;0.00;0.00;;;;;10.79;53.26;99916.63;5008545;28;45166;-84
2022/04/08 00:28:05;;;;;;;;;1.00;0.25;;;;;10.87;53.37;99924.63;5007902;28;45164;-84
2022/04/08 00:30:31;;;;;;;;;0.00;0.00;;;;;10.87;53.69;99926.38;5009587;28;46049;-84
2022/04/08 00:32:57;;;;;;;;;0.25;0.00;;;;;10.65;53.21;99881.28;5009859;28;45111;-84
2022/04/08 00:35:23;;;;;;;;;0.00;0.00;;;;;10.72;53.69;99891.03;5010369;28;45317;-84
2022/04/08 00:37:50;;;;;;;;;0.00;0.00;;;;;10.97;53.29;99936.22;5010504;28;45134;-84
2022/04/08 00:40:15;;;;;;;;;0.00;0.00;;;;;10.95;53.12;99925.69;5009673;28;45282;-85
2022/04/08 00:42:42;;;;;;;;;0.25;0.25;;;;;10.82;53.96;99890.38;5009787;28;45463;-85
2022/04/08 00:45:08;;;;;;;;;1.00;0.75;;;;;10.63;53.84;99859.31;5009583;28;45232;-84
2022/04/08 00:47:35;;;;;;;;;1.00;1.00;;;;;10.84;53.44;99893.94;5009305;28;45275;-84
2022/04/08 00:50:01;;;;;;;;;0.00;0.00;;;;;10.94;53.85;99899.38;5009856;28;45299;-84
2022/04/08 00:52:26;;;;;;;;;1.25;1.00;;;;;10.88;53.81;99883.47;5010260;28;45102;-83
2022/04/08 00:54:53;;;;;;;;;0.25;0.25;;;;;11.08;53.67;99914.56;5007991;28;45112;-84
2022/04/08 00:57:18;;;;;;;;;0.00;0.00;;;;;11.00;53.87;99896.84;5010526;28;45317;-84
2022/04/08 00:59:44;;;;;;;;;1.00;0.25;;;;;11.14;53.87;99908.53;4991172;28;46153;-84
2022/04/08 01:02:09;;;;;;;;;0.00;0.00;;;;;10.79;54.09;99844.75;5010089;28;45418;-84
2022/04/08 01:04:34;;;;;;;;;1.00;0.00;;;;;11.00;54.09;99873.19;4999007;28;45185;-85
2022/04/08 01:07:02;;;;;;;;;1.33;0.67;;;;;11.01;54.34;99883.72;5007326;28;45152;-85
2022/04/08 01:09:27;;;;;;;;;1.00;0.00;;;;;11.16;54.41;99895.41;4999937;28;45256;-85
2022/04/08 01:11:52;;;;;;;;;1.00;1.00;;;;;11.07;54.10;99885.59;4988222;28;45056;-85
2022/04/08 01:14:18;;;;;;;;;1.25;0.75;;;;;10.96;54.17;99863.47;4988912;28;45098;-85
2022/04/08 01:16:43;;;;;;;;;0.00;0.00;;;;;10.99;53.88;99869.69;4990230;28;45062;-84
2022/04/08 01:19:09;;;;;;;;;1.00;0.50;;;;;10.79;53.87;99835.13;5001900;28;45415;-85
2022/04/08 01:21:34;;;;;;;;;1.25;0.25;;;;;10.92;54.25;99838.84;4992299;28;45373;-84
2022/04/08 01:24:01;;;;;;;;;0.00;0.00;;;;;10.92;53.92;99838.84;5009263;28;45126;-85
2022/04/08 01:26:27;;;;;;;;;1.00;0.00;;;;;11.13;53.86;99874.28;5008400;28;45194;-84
2022/04/08 01:28:54;;;;;;;;;1.00;1.00;;;;;11.15;54.21;99868.22;4991392;28;47191;-85
2022/04/08 01:31:20;;;;;;;;;0.75;0.75;;;;;11.02;54.65;99845.16;5009429;28;45368;-84
2022/04/08 01:33:45;;;;;;;;;0.50;0.50;;;;;11.09;54.12;99847.94;5009106;28;45280;-84
2022/04/08 01:36:13;;;;;;;;;2.00;1.00;;;;;11.10;54.57;99848.84;4991232;28;44999;-84
2022/04/08 01:38:53;;;;;;;;;0.50;0.00;;;;;10.95;54.11;99819.63;5009922;28;45353;-84
2022/04/08 01:41:20;;;;;;;;;0.00;0.00;;;;;11.23;54.37;99857.81;5010011;28;45413;-84
2022/04/08 01:43:45;;;;;;;;;0.00;0.00;;;;;11.32;54.60;99874.63;5009896;28;45259;-84
2022/04/08 01:46:11;;;;;;;;;1.25;1.00;;;;;11.32;54.41;99874.63;5010068;28;45264;-84
2022/04/08 01:48:37;;;;;;;;;0.00;0.00;;;;;11.15;54.08;99843.66;5009470;28;45476;-84
2022/04/08 01:51:02;;;;;;;;;2.00;0.00;;;;;11.09;54.43;99826.91;4988838;28;45771;-84
2022/04/08 01:53:28;;;;;;;;;0.75;0.75;;;;;11.00;54.46;99816.22;4993694;28;45528;-84
2022/04/08 01:55:53;;;;;;;;;1.00;0.75;;;;;11.23;54.45;99848.22;5006686;28;46256;-83
2022/04/08 01:58:19;;;;;;;;;1.00;0.00;;;;;11.05;54.71;99808.44;5006308;28;45231;-83
2022/04/08 02:00:44;;;;;;;;;0.50;0.00;;;;;11.25;54.49;99843.84;5005731;28;45384;-83
2022/04/08 02:03:09;;;;;;;;;0.00;0.00;;;;;11.26;54.59;99845.59;5007914;28;45211;-84
2022/04/08 02:05:35;;;;;;;;;2.00;0.00;;;;;11.24;54.58;99835.94;5008672;28;45030;-85
2022/04/08 02:08:01;;;;;;;;;1.00;1.00;;;;;11.32;54.64;99850.97;5009647;28;45319;-83
2022/04/08 02:10:26;;;;;;;;;1.00;1.00;;;;;11.32;54.56;99855.34;5008679;28;45078;-84
2022/04/08 02:12:52;;;;;;;;;1.00;1.00;;;;;11.13;54.83;99816.44;5010150;28;45057;-84
2022/04/08 02:15:28;;;;;;;;;1.00;0.00;;;;;11.12;54.93;99818.19;5009776;28;44942;-83
2022/04/08 02:17:54;;;;;;;;;1.00;0.00;;;;;11.27;55.07;99842.13;4991238;28;47617;-85
2022/04/08 02:20:19;;;;;;;;;0.00;0.00;;;;;11.21;54.89;99835.88;5009585;28;45129;-83
2022/04/08 02:22:45;;;;;;;;;0.50;0.25;;;;;11.22;55.33;99833.25;5005800;28;44959;-84
2022/04/08 02:25:11;;;;;;;;;0.75;0.75;;;;;11.24;55.16;99842.06;4990758;28;45145;-85
2022/04/08 02:27:37;;;;;;;;;1.00;0.00;;;;;11.18;55.69;99830.53;5005685;28;45787;-84
2022/04/08 02:30:03;;;;;;;;;2.00;0.00;;;;;11.08;55.40;99808.47;5009061;28;45264;-84
2022/04/08 02:32:28;;;;;;;;;1.00;0.00;;;;;11.19;55.93;99825.34;5009008;28;45219;-84
2022/04/08 02:34:54;;;;;;;;;2.00;1.25;;;;;11.07;55.95;99802.31;5008440;28;45352;-84
2022/04/08 02:37:20;;;;;;;;;1.00;1.00;;;;;11.22;56.02;99820.09;5006997;28;45335;-84
2022/04/08 02:39:45;;;;;;;;;1.25;0.50;;;;;11.00;56.16;99783.81;5007966;28;45185;-84
2022/04/08 02:42:10;;;;;;;;;1.75;1.00;;;;;10.97;56.27;99765.34;5009469;28;45240;-84
2022/04/08 02:44:36;;;;;;;;;2.00;0.00;;;;;10.93;56.33;99756.50;5009162;28;45014;-84
2022/04/08 02:47:02;;;;;;;;;1.00;0.50;;;;;11.25;56.25;99814.91;5008782;28;45213;-84
2022/04/08 02:49:27;;;;;;;;;1.25;0.00;;;;;11.10;56.38;99790.97;5008831;28;45149;-83
2022/04/08 02:51:53;;;;;;;;;1.00;1.00;;;;;11.20;56.37;99800.78;5006871;28;45391;-84
2022/04/08 02:54:19;;;;;;;;;0.50;0.00;;;;;10.99;56.58;99761.88;5007106;28;45172;-84
2022/04/08 02:56:44;;;;;;;;;0.75;0.00;;;;;11.14;56.81;99794.56;5009269;28;45463;-84
2022/04/08 02:59:09;;;;;;;;;1.00;1.00;;;;;11.23;56.57;99792.06;5009438;28;45240;-83
2022/04/08 03:01:35;;;;;;;;;0.50;0.00;;;;;11.03;57.00;99763.72;5009155;28;44993;-85
2022/04/08 03:04:01;;;;;;;;;1.75;1.00;;;;;10.86;56.86;99723.09;5008676;28;45164;-84
2022/04/08 03:06:27;;;;;;;;;4.00;2.00;;;;;11.05;56.90;99761.09;5007758;28;45553;-84
2022/04/08 03:08:52;;;;;;;;;0.00;0.00;;;;;10.93;57.40;99747.72;5010624;28;45544;-84
2022/04/08 03:11:18;;;;;;;;;1.33;1.00;;;;;11.18;57.67;99791.09;5009883;28;45727;-84
2022/04/08 03:13:43;;;;;;;;;3.00;1.00;;;;;11.05;58.02;99763.72;5012088;28;45314;-83
2022/04/08 03:16:11;;;;;;;;;1.75;1.50;;;;;10.87;58.11;99735.38;5012065;28;45182;-84
2022/04/08 03:18:36;;;;;;;;;5.00;1.00;;;;;10.65;58.54;99704.34;5009998;28;45157;-84
2022/04/08 03:21:02;;;;;;;;;1.00;1.00;;;;;10.72;58.72;99709.72;5011941;28;45221;-83
2022/04/08 03:23:27;;;;;;;;;1.75;1.00;;;;;10.88;58.88;99749.41;5010814;28;45183;-84
2022/04/08 03:25:52;;;;;;;;;1.00;0.75;;;;;10.84;59.46;99744.09;5005414;28;45812;-84
2022/04/08 03:28:17;;;;;;;;;1.00;1.00;;;;;10.76;59.65;99721.16;5011060;28;44932;-84
2022/04/08 03:30:43;;;;;;;;;0.00;0.00;;;;;10.85;60.52;99760.75;5011593;28;45373;-83
2022/04/08 03:33:08;;;;;;;;;1.25;1.00;;;;;10.61;60.57;99718.28;5012262;28;45359;-85
2022/04/08 03:35:34;;;;;;;;;1.00;1.00;;;;;10.90;60.99;99766.97;5011783;28;46287;-84
2022/04/08 03:37:59;;;;;;;;;2.00;1.00;;;;;10.76;61.78;99740.44;5008327;28;45232;-84
2022/04/08 03:40:25;;;;;;;;;1.33;1.00;;;;;10.80;62.30;99744.91;5011902;28;45217;-85
2022/04/08 03:42:50;;;;;;;;;2.75;0.00;;;;;10.79;62.82;99730.00;5010962;28;45102;-84
2022/04/08 03:45:15;;;;;;;;;1.67;1.00;;;;;10.66;62.87;99704.34;5011580;28;45298;-84
2022/04/08 03:47:41;;;;;;;;;3.25;1.00;;;;;10.83;62.19;99721.28;5011916;28;45144;-83
2022/04/08 03:50:07;;;;;;;;;2.25;1.75;;;;;10.87;62.74;99734.50;5012098;28;45409;-85
2022/04/08 03:52:32;;;;;;;;;0.75;0.50;;;;;10.99;62.83;99745.22;5011657;28;45438;-84
2022/04/08 03:54:59;;;;;;;;;0.75;0.00;;;;;10.66;62.69;99677.19;5010787;28;45231;-85
2022/04/08 03:57:25;;;;;;;;;1.50;1.00;;;;;10.85;62.80;99701.19;5011667;28;45367;-84
2022/04/08 03:59:51;;;;;;;;;2.50;1.50;;;;;10.92;63.56;99706.53;5011944;28;45177;-84
2022/04/08 04:02:16;;;;;;;;;1.75;1.00;;;;;10.91;63.67;99699.50;5011802;28;45305;-82
2022/04/08 04:04:42;;;;;;;;;1.00;1.00;;;;;10.70;63.88;99655.38;5007041;28;45356;-84
2022/04/08 04:07:08;;;;;;;;;3.00;2.00;;;;;10.83;63.94;99687.09;5011499;28;45084;-83
2022/04/08 04:09:33;;;;;;;;;2.50;1.50;;;;;10.57;64.37;99633.25;4993036;28;45175;-84
2022/04/08 04:11:59;;;;;;;;;2.00;2.00;;;;;10.96;63.63;99693.47;5008112;28;44978;-84
2022/04/08 04:14:24;;;;;;;;;2.75;1.00;;;;;10.69;64.05;99646.59;5009459;28;45782;-84
2022/04/08 04:16:49;;;;;;;;;1.00;1.00;;;;;10.79;64.02;99648.53;5008031;28;45247;-84
2022/04/08 04:19:16;;;;;;;;;3.75;1.00;;;;;10.82;63.63;99659.06;5010960;28;45426;-85
2022/04/08 04:21:42;;;;;;;;;1.00;1.00;;;;;10.74;64.09;99626.53;5011791;28;45013;-82
2022/04/08 04:24:08;;;;;;;;;1.00;1.00;;;;;10.84;64.36;99656.47;4990568;28;47266;-84
2022/04/08 04:26:33;;;;;;;;;1.50;1.00;;;;;10.75;64.72;99623.03;5009723;28;45523;-83
2022/04/08 04:28:58;;;;;;;;;1.25;1.25;;;;;10.73;64.84;99615.97;5010644;28;45469;-83
2022/04/08 04:31:24;;;;;;;;;1.25;1.00;;;;;10.88;65.09;99633.72;5008595;28;45070;-84
2022/04/08 04:33:49;;;;;;;;;2.00;1.50;;;;;10.54;64.98;99578.00;4993535;28;46611;-84
2022/04/08 04:36:15;;;;;;;;;2.00;2.00;;;;;10.64;65.15;99592.19;4996930;28;45594;-84
2022/04/08 04:38:40;;;;;;;;;1.25;1.00;;;;;10.69;65.07;99594.06;4997198;28;45146;-84
2022/04/08 04:41:06;;;;;;;;;2.50;1.50;;;;;10.78;65.24;99598.53;4995273;28;45801;-85
2022/04/08 04:43:31;;;;;;;;;0.50;0.50;;;;;10.66;65.19;99580.84;4997586;28;48085;-84
2022/04/08 04:45:57;;;;;;;;;1.00;1.00;;;;;10.93;65.26;99624.16;5006559;28;45044;-84
2022/04/08 04:48:22;;;;;;;;;2.00;2.00;;;;;10.71;65.28;99588.81;5008993;28;45562;-83
2022/04/08 04:50:48;;;;;;;;;1.75;1.00;;;;;10.84;65.43;99607.41;5010755;28;45077;-84
2022/04/08 04:53:14;;;;;;;;;1.00;1.00;;;;;10.91;65.81;99611.00;5010971;28;45255;-84
2022/04/08 04:55:39;;;;;;;;;2.75;1.00;;;;;10.58;65.94;99543.06;5010186;28;45381;-84
2022/04/08 04:58:05;;;;;;;;;2.75;2.00;;;;;10.60;65.91;99538.72;5011141;28;45152;-84
2022/04/08 05:00:30;;;;;;;;;3.50;3.00;;;;;10.57;65.90;99536.03;5010763;28;45316;-83
2022/04/08 05:02:56;;;;;;;;;9.25;5.25;;;;;10.61;65.81;99537.88;4992417;28;47772;-83
2022/04/08 05:05:21;;;;;;;;;9.75;9.75;;;;;10.77;65.77;99558.25;4993266;28;44959;-84
2022/04/08 05:07:46;;;;;;;;;4.00;3.75;;;;;10.45;65.72;99497.34;4992457;28;45012;-84
2022/04/08 05:10:12;;;;;;;;;5.00;5.00;;;;;10.55;65.78;99516.75;4992831;28;45485;-84
2022/04/08 05:12:37;;;;;;;;;3.50;3.00;;;;;10.66;65.60;99530.94;4994956;28;46856;-84
2022/04/08 05:15:06;;;;;;;;;2.50;1.50;;;;;10.73;65.68;99532.78;5009502;28;45375;-82
2022/04/08 05:17:34;;;;;;;;;2.25;2.25;;;;;10.51;65.84;99493.94;5005389;28;45061;-83
2022/04/08 05:20:01;;;;;;;;;2.75;2.00;;;;;10.52;66.27;99491.31;5004623;28;45383;-83
2022/04/08 05:22:26;;;;;;;;;1.50;1.00;;;;;10.65;66.53;99516.03;5000091;28;45416;-84
2022/04/08 05:24:51;;;;;;;;;2.75;2.00;;;;;10.36;66.61;99470.94;4971950;28;45079;-85
2022/04/08 05:27:17;;;;;;;;;2.00;2.00;;;;;10.59;67.20;99498.44;4990871;28;45470;-83
2022/04/08 05:29:42;;;;;;;;;4.00;4.00;;;;;10.71;66.89;99521.38;4994227;28;45063;-84
2022/04/08 05:32:08;;;;;;;;;3.75;2.25;;;;;10.72;67.43;99515.25;5004170;28;45786;-83
2022/04/08 05:34:33;;;;;;;;;4.00;4.00;;;;;10.61;67.50;99480.06;5014383;28;45179;-84
2022/04/08 05:36:58;;;;;;;;;2.75;2.00;;;;;10.52;67.37;99458.91;5017574;28;45673;-85
2022/04/08 05:39:24;;;;;;;;;5.50;4.00;;;;;10.74;67.61;99495.16;4991714;28;45249;-85
2022/04/08 05:41:49;;;;;;;;;4.00;3.67;;;;;10.50;67.16;99451.00;5004914;28;45736;-83
2022/04/08 05:44:14;;;;;;;;;3.75;3.75;;;;;10.56;67.36;99458.09;5009748;28;45208;-85
2022/04/08 05:46:40;;;;;;;;;7.00;7.00;;;;;10.65;67.26;99470.47;4992515;28;45339;-84
2022/04/08 05:49:05;;;;;;;;;8.25;7.25;;;;;10.78;67.44;99483.78;5009412;28;45173;-85
2022/04/08 05:51:30;;;;;;;;;4.50;3.75;;;;;10.46;67.71;99416.81;5020487;28;47046;-85
2022/04/08 05:53:56;;;;;;;;;2.00;2.00;;;;;10.67;67.80;99453.84;5002475;28;45101;-84
2022/04/08 05:56:21;;;;;;;;;2.00;1.67;;;;;10.53;67.86;99427.41;4996137;28;44964;-85
2022/04/08 05:58:46;;;;;;;;;2.00;1.50;;;;;10.41;67.99;99398.34;4974308;28;45404;-84
2022/04/08 06:01:12;;;;;;;;;2.25;2.00;;;;;10.69;67.99;99439.00;4996032;28;45887;-85
2022/04/08 06:03:37;;;;;;;;;2.00;2.00;;;;;10.70;68.06;99432.00;4997763;28;45002;-85
2022/04/08 06:06:04;;;;;;;;;1.00;1.00;;;;;10.54;68.16;99404.63;4998351;28;45165;-82
2022/04/08 06:08:29;;;;;;;;;1.50;1.50;;;;;10.53;67.99;99406.38;5003459;28;45584;-85
2022/04/08 06:10:55;;;;;;;;;1.00;1.00;;;;;10.27;68.17;99358.75;4995194;28;46386;-86
2022/04/08 06:13:24;;;;;;;;;5.75;4.00;;;;;10.65;68.41;99413.56;4983113;28;45167;-85
2022/04/08 06:15:51;;;;;;;;;2.00;1.75;;;;;10.50;68.24;99372.22;4985437;28;45282;-85
2022/04/08 06:18:18;;;;;;;;;4.00;3.00;;;;;10.62;68.45;99391.59;5019847;28;45675;-85
2022/04/08 06:20:43;;;;;;;;;3.00;2.00;;;;;10.49;68.40;99352.06;5000391;28;47179;-84
2022/04/08 06:23:09;;;;;;;;;2.25;2.25;;;;;10.24;68.27;99303.56;4999719;28;45734;-84
2022/04/08 06:25:34;;;;;;;;;2.00;1.75;;;;;10.57;68.29;99344.25;5001116;28;45321;-87
2022/04/08 06:28:04;;;;;;;;;2.00;2.00;;;;;10.31;68.64;99294.94;5007433;28;45146;-83
2022/04/08 06:30:35;;;;;;;;;3.00;3.00;;;;;10.58;68.80;99333.75;4998591;28;45345;-85
2022/04/08 06:33:02;;;;;;;;;2.00;2.00;;;;;10.46;68.71;99309.97;4977726;28;45319;-85
2022/04/08 06:35:27;;;;;;;;;3.00;2.00;;;;;10.55;68.34;99327.59;5011359;28;45613;-85
2022/04/08 06:38:19;;;;;;;;;2.00;1.00;;;;;10.76;68.61;99363.75;4998530;28;45408;-88
2022/04/08 06:40:44;;;;;;;;;0.75;0.75;;;;;10.37;68.61;99299.38;4997219;28;45866;-85
2022/04/08 06:43:10;;;;;;;;;2.75;1.50;;;;;10.46;68.32;99325.75;4996945;28;45039;-86
2022/04/08 06:45:36;;;;;;;;;2.00;2.00;;;;;10.70;68.53;99359.31;5009332;28;45378;-85
2022/04/08 06:48:01;;;;;;;;;1.25;1.25;;;;;10.44;68.46;99308.19;5009501;28;45122;-84
2022/04/08 06:50:28;;;;;;;;;1.25;1.00;;;;;10.69;68.57;99359.28;5006640;28;46060;-83
2022/04/08 06:52:59;;;;;;;;;2.00;1.50;;;;;10.39;68.31;99307.25;4990471;28;45201;-85
2022/04/08 06:55:25;;;;;;;;;2.00;1.00;;;;;10.43;68.65;99325.69;5005634;28;45154;-85
2022/04/08 06:57:51;;;;;;;;;1.00;1.00;;;;;10.56;68.67;99346.00;5006060;28;45139;-86
2022/04/08 07:00:16;;;;;;;;;5.50;4.25;;;;;10.58;68.81;99338.13;5008619;28;45975;-85
2022/04/08 07:02:42;;;;;;;;;7.75;5.50;;;;;10.55;68.74;99340.75;5007003;28;45231;-86
2022/04/08 07:05:08;;;;;;;;;1.33;1.00;;;;;10.68;68.98;99361.03;4997800;28;45133;-82
2022/04/08 07:07:38;;;;;;;;;3.50;2.50;;;;;10.14;69.29;99266.66;4988920;28;45371;-86
2022/04/08 07:10:07;;;;;;;;;3.00;2.00;;;;;10.36;69.00;99305.50;5004718;28;45678;-85
2022/04/08 07:12:34;;;;;;;;;4.00;3.00;;;;;10.28;68.92;99287.00;5004703;28;45102;-83
2022/04/08 07:15:00;;;;;;;;;2.75;2.50;;;;;10.23;69.30;99270.28;5005502;28;45449;-87
2022/04/08 07:17:33;;;;;;;;;4.00;3.00;;;;;10.66;69.30;99347.00;5006697;28;45087;-86
2022/04/08 07:19:58;;;;;;;;;3.50;3.00;;;;;10.68;69.72;99336.50;5006167;28;46616;-85
2022/04/08 07:22:25;;;;;;;;;5.00;4.00;;;;;10.05;69.49;99230.69;5005027;28;45208;-85
2022/04/08 07:24:52;;;;;;;;;4.25;4.00;;;;;9.92;69.37;99186.78;5005801;28;45182;-82
2022/04/08 07:27:18;;;;;;;;;2.75;2.75;;;;;10.15;69.57;99222.06;5006622;28;45307;-84
2022/04/08 07:29:44;;;;;;;;;3.00;3.00;;;;;10.49;69.47;99267.09;5005611;28;45924;-85
2022/04/08 07:32:10;;;;;;;;;2.50;2.50;;;;;10.58;69.50;99281.22;4988399;28;45466;-84
2022/04/08 07:34:38;;;;;;;;;0.00;0.00;;;;;10.05;69.39;99175.56;5006132;28;45268;-85
2022/04/08 07:37:05;;;;;;;;;2.00;2.00;;;;;10.36;68.93;99224.06;5006012;28;45225;-86
2022/04/08 07:39:30;;;;;;;;;3.00;2.75;;;;;10.27;68.64;99205.59;4987761;28;47114;-81
2022/04/08 07:41:56;;;;;;;;;2.00;2.00;;;;;9.70;69.12;99081.56;5002224;28;45382;-81
2022/04/08 07:44:22;;;;;;;;;3.25;2.75;;;;;10.71;69.33;99250.72;5000062;28;45604;-83
2022/04/08 07:46:47;;;;;;;;;2.25;1.75;;;;;10.54;69.43;99212.84;5007116;28;45156;-81
2022/04/08 07:49:13;;;;;;;;;2.50;2.00;;;;;9.94;69.28;99119.44;4996538;28;46220;-83
2022/04/08 07:51:38;;;;;;;;;2.00;1.25;;;;;10.12;69.32;99153.75;5006415;28;45168;-83
2022/04/08 07:54:03;;;;;;;;;2.00;2.00;;;;;10.11;69.20;99144.13;5006304;28;45303;-83
2022/04/08 07:56:33;;;;;;;;;2.50;1.75;;;;;10.10;69.09;99137.13;4999637;28;45374;-82
2022/04/08 07:58:58;;;;;;;;;4.25;2.00;;;;;9.89;68.78;99100.13;4993733;28;46401;-82
2022/04/08 08:01:24;;;;;;;;;1.00;1.00;;;;;10.68;68.97;99241.91;5004994;28;45655;-83
2022/04/08 08:03:49;;;;;;;;;2.00;1.00;;;;;9.71;69.13;99067.59;5007227;28;45640;-82
2022/04/08 08:06:15;;;;;;;;;5.75;5.75;;;;;10.21;68.96;99143.38;5010273;28;45351;-82
2022/04/08 08:08:41;;;;;;;;;1.75;1.75;;;;;10.64;68.92;99209.50;4991865;28;47061;-86
2022/04/08 08:11:11;;;;;;;;;1.25;1.25;;;;;10.45;69.06;99163.78;4991699;28;45400;-83
2022/04/08 08:13:37;;;;;;;;;2.00;1.25;;;;;10.16;69.18;99100.44;5009893;28;45318;-81
2022/04/08 08:16:03;;;;;;;;;3.50;2.75;;;;;10.44;69.20;99130.50;4994806;28;45249;-82
2022/04/08 08:18:28;;;;;;;;;2.00;2.00;;;;;10.57;68.96;99140.22;5010548;28;45314;-86
2022/04/08 08:20:54;;;;;;;;;2.75;2.75;;;;;9.90;69.00;99049.41;5009778;28;45257;-81
2022/04/08 08:23:19;;;;;;;;;3.25;3.25;;;;;9.88;68.81;99038.91;5010770;28;45702;-82
2022/04/08 08:25:45;;;;;;;;;3.25;3.00;;;;;10.00;68.95;99064.38;5003879;28;45017;-84
2022/04/08 08:28:10;;;;;;;;;1.25;1.25;;;;;10.01;69.17;99056.53;4995849;28;45268;-84
2022/04/08 08:30:38;;;;;;;;;2.25;2.25;;;;;10.27;69.01;99092.69;5015049;28;45136;-85
2022/04/08 08:33:07;;;;;;;;;2.25;2.00;;;;;10.61;68.96;99138.50;5009263;28;45410;-85
2022/04/08 08:35:33;;;;;;;;;2.00;2.00;;;;;10.61;68.90;99130.63;5006156;28;45102;-86
2022/04/08 08:38:00;;;;;;;;;2.00;2.00;;;;;10.40;69.02;99104.19;4999006;28;45797;-85
2022/04/08 08:40:30;;;;;;;;;2.25;2.25;;;;;10.43;69.16;99093.69;5009247;28;45369;-85
2022/04/08 08:42:56;;;;;;;;;4.00;3.00;;;;;10.21;69.10;99053.22;4972510;28;45193;-85
2022/04/08 08:45:21;;;;;;;;;6.00;6.00;;;;;10.11;69.72;99041.75;4990149;28;45158;-85
2022/04/08 08:47:48;;;;;;;;;4.33;4.00;;;;;10.47;69.47;99103.38;5000179;28;45579;-85
2022/04/08 08:50:15;;;;;;;;;4.00;3.00;;;;;10.53;70.01;99113.91;5006847;28;45317;-85
2022/04/08 08:52:50;;;;;;;;;6.25;5.50;;;;;10.29;69.43;99081.31;5006752;28;45491;-85
2022/04/08 08:55:16;;;;;;;;;4.25;3.75;;;;;9.87;69.53;98999.53;4993621;28;45258;-85
2022/04/08 08:57:43;;;;;;;;;6.25;5.00;;;;;10.26;69.42;99028.78;5010003;28;45349;-86
2022/04/08 09:00:13;;;;;;;;;5.25;5.00;;;;;9.80;69.31;98954.88;5008843;28;45594;-86
2022/04/08 09:02:39;;;;;;;;;6.25;5.50;;;;;10.07;69.60;98987.47;5008513;28;46010;-85
2022/04/08 09:05:18;;;;;;;;;4.00;3.50;;;;;10.62;69.69;99055.31;5014384;28;45035;-87
2022/04/08 09:07:52;;;;;;;;;2.00;2.00;;;;;10.45;69.29;99011.44;5007586;28;45738;-84
2022/04/08 09:10:25;;;;;;;;;2.75;2.75;;;;;10.47;69.38;99027.19;5010492;28;45160;-84
2022/04/08 09:12:56;;;;;;;;;3.00;3.00;;;;;10.55;69.56;99049.16;5009361;28;45022;-85
2022/04/08 09:15:21;;;;;;;;;4.50;4.50;;;;;10.19;69.83;98998.06;5007192;28;45425;-87
2022/04/08 09:17:46;;;;;;;;;3.00;3.00;;;;;10.23;69.57;98989.34;5007239;28;45307;-84
2022/04/08 09:20:12;;;;;;;;;3.67;3.67;;;;;10.14;69.42;98951.63;4986822;28;45222;-85
2022/04/08 09:22:37;;;;;;;;;3.00;2.75;;;;;10.30;69.47;98977.19;5001943;28;45320;-86
2022/04/08 09:25:09;;;;;;;;;3.00;3.00;;;;;10.01;69.16;98927.06;5015271;28;45290;-86
2022/04/08 09:27:35;;;;;;;;;3.50;3.00;;;;;10.28;69.28;98966.66;5000636;28;45951;-86
2022/04/08 09:30:01;;;;;;;;;2.00;2.00;;;;;9.95;69.51;98927.91;4989613;28;46046;-87
2022/04/08 09:32:27;;;;;;;;;2.00;2.00;;;;;9.99;69.82;98955.91;4995181;28;45548;-85
2022/04/08 09:34:53;;;;;;;;;2.25;2.00;;;;;10.02;69.54;98961.19;5009358;28;45839;-85
2022/04/08 09:37:18;;;;;;;;;1.50;1.50;;;;;9.69;69.63;98883.06;5010405;28;46035;-83
2022/04/08 09:39:58;;;;;;;;;2.00;1.00;;;;;10.04;69.90;98982.19;4996611;28;45027;-84
2022/04/08 09:42:39;;;;;;;;;3.00;2.00;;;;;9.86;70.22;98971.56;5008262;28;45062;-86
2022/04/08 09:45:05;;;;;;;;;3.25;3.25;;;;;9.78;70.30;98969.72;5007441;28;45185;-85
2022/04/08 09:47:31;;;;;;;;;4.50;2.25;;;;;9.83;70.53;98990.75;4998903;28;46383;-86
2022/04/08 09:49:56;;;;;;;;;4.00;3.00;;;;;9.48;70.88;98953.69;5008120;28;45260;-87
2022/04/08 09:52:23;;;;;;;;;3.00;3.00;;;;;9.62;71.68;99022.03;5010206;28;45079;-85
2022/04/08 09:54:49;;;;;;;;;2.25;2.00;;;;;9.64;73.23;99029.03;4988816;28;45179;-85
2022/04/08 09:57:18;;;;;;;;;1.00;1.00;;;;;9.25;73.67;98958.69;4999617;28;46483;-85
2022/04/08 09:59:50;;;;;;;;;3.00;2.50;;;;;9.49;78.38;98997.41;4990301;28;45440;-85
2022/04/08 10:02:17;;;;;;;;;3.00;3.00;;;;;9.34;83.51;98953.56;4984109;28;46065;-86
2022/04/08 10:04:46;;;;;;;;;3.75;3.25;;;;;9.70;84.41;98999.38;4971787;28;45823;-86
2022/04/08 10:07:12;;;;;;;;;2.75;2.75;;;;;9.33;84.64;98903.72;4973088;28;48130;-87
2022/04/08 10:09:46;;;;;;;;;3.25;3.25;;;;;9.67;84.21;98966.13;4988777;28;46118;-86
2022/04/08 10:12:20;;;;;;;;;2.50;2.00;;;;;9.83;83.55;98989.00;4987983;28;45775;-85
2022/04/08 10:15:09;;;;;;;;;2.25;2.25;;;;;9.30;80.14;98899.31;4992460;28;45478;-86
2022/04/08 10:17:34;;;;;;;;;6.75;5.75;;;;;9.41;76.32;98886.31;4987549;28;46339;-86
2022/04/08 10:20:22;;;;;;;;;4.00;4.00;;;;;9.45;73.92;98894.22;4989877;28;45572;-82
2022/04/08 10:22:54;;;;;;;;;5.00;5.00;;;;;9.79;73.10;98974.09;5005389;28;45267;-81
2022/04/08 10:25:22;;;;;;;;;8.00;7.00;;;;;9.46;73.25;98937.09;4998642;28;45332;-84
2022/04/08 10:27:58;;;;;;;;;4.00;4.00;;;;;9.44;72.90;98926.56;5005749;28;45924;-86
2022/04/08 10:30:24;;;;;;;;;3.75;2.25;;;;;9.27;73.90;98881.84;5005426;28;45615;-85
2022/04/08 10:33:00;;;;;;;;;3.50;3.50;;;;;9.68;72.78;98952.13;4994874;28;45055;-86
2022/04/08 10:35:25;;;;;;;;;3.00;3.00;;;;;9.59;72.48;98957.28;4986600;28;45473;-86
2022/04/08 10:38:06;;;;;;;;;3.00;2.50;;;;;9.85;72.11;98990.75;5006399;28;45354;-88
2022/04/08 10:40:37;;;;;;;;;3.75;3.00;;;;;9.71;72.01;98952.19;4993597;28;45259;-86
2022/04/08 10:43:06;;;;;;;;;3.00;3.00;;;;;9.91;71.82;98975.09;5001544;28;45205;-85
2022/04/08 10:45:32;;;;;;;;;4.00;4.00;;;;;9.62;72.17;98896.13;4998567;28;45135;-87
2022/04/08 10:48:10;;;;;;;;;3.00;2.25;;;;;9.25;71.80;98786.56;4992174;28;45662;-86
2022/04/08 10:50:37;;;;;;;;;3.50;3.00;;;;;10.20;71.67;98893.94;5015205;28;45644;-84
2022/04/08 10:53:06;;;;;;;;;3.00;3.00;;;;;10.65;71.35;98909.09;5008462;28;45161;-89
2022/04/08 10:55:31;;;;;;;;;3.75;3.25;;;;;10.48;71.35;98818.81;5007859;28;45029;-87
2022/04/08 10:57:58;;;;;;;;;4.25;4.25;;;;;10.95;70.79;98818.97;5008314;28;45832;-87
2022/04/08 11:00:25;;;;;;;;;5.50;5.00;;;;;11.33;70.56;98826.94;5023400;28;45158;-86
2022/04/08 11:02:53;;;;;;;;;4.75;4.25;;;;;11.55;69.84;98847.97;5008128;28;45311;-85
2022/04/08 11:05:18;;;;;;;;;4.00;4.00;;;;;11.56;69.70;98847.09;5008944;28;45149;-85
2022/04/08 11:07:46;;;;;;;;;4.75;4.25;;;;;11.84;68.84;98876.94;5008346;28;45604;-87
2022/04/08 11:10:20;;;;;;;;;8.00;6.00;;;;;11.85;68.41;98903.25;5007763;28;45425;-88
2022/04/08 11:12:48;;;;;;;;;4.00;4.00;;;;;11.69;68.33;98896.22;5009065;28;45362;-87
2022/04/08 11:15:18;;;;;;;;;5.00;5.00;;;;;11.58;68.56;98885.69;5009159;28;44924;-88
2022/04/08 11:17:46;;;;;;;;;7.00;5.50;;;;;11.91;68.70;98898.88;5008153;28;45989;-88
2022/04/08 11:20:17;;;;;;;;;4.75;4.75;;;;;11.98;68.49;98917.31;5008429;28;45097;-87
2022/04/08 11:22:49;;;;;;;;;4.50;4.00;;;;;11.59;67.92;98892.69;4990409;28;45018;-87
2022/04/08 11:25:26;;;;;;;;;5.00;5.00;;;;;11.62;67.97;98899.69;4989479;28;45097;-88
2022/04/08 11:28:09;;;;;;;;;9.00;7.25;;;;;11.69;68.50;98853.22;4990199;28;47518;-87
2022/04/08 11:30:40;;;;;;;;;11.25;10.25;;;;;12.19;69.04;98916.41;5010686;28;45517;-88
2022/04/08 11:33:16;;;;;;;;;6.50;6.00;;;;;11.95;68.38;98883.06;4994410;28;45189;-87